createdAt,value
2018-12-22T00:00:22.590Z,95166
2018-12-22T00:01:24.761Z,95165.3
2018-12-22T00:02:26.896Z,95163.8
2018-12-22T00:03:29.081Z,95160.7
2018-12-22T00:04:31.233Z,95155.8
2018-12-22T00:05:33.391Z,95166.2
2018-12-22T00:06:35.547Z,95145.9
2018-12-22T00:07:37.969Z,95150.1
2018-12-22T00:08:40.140Z,95168.6
2018-12-22T00:09:42.571Z,95155.8
2018-12-22T00:10:44.444Z,95157.1
2018-12-22T00:11:46.869Z,95156
2018-12-22T00:12:48.472Z,95144.5
2018-12-22T00:13:50.625Z,95160.3
2018-12-22T00:14:53.069Z,95158.5
2018-12-22T00:15:55.207Z,95154
2018-12-22T00:16:57.639Z,95157.8
2018-12-22T00:18:00.088Z,95154.2
2018-12-22T00:19:02.512Z,95152.4
2018-12-22T00:20:04.420Z,95167.2
2018-12-22T00:21:06.583Z,95156.8
2018-12-22T00:22:09.022Z,95175.1
2018-12-22T00:23:11.461Z,95154.4
2018-12-22T00:24:13.626Z,95162.3
2018-12-22T00:25:16.051Z,95168.5
2018-12-22T00:26:18.482Z,95163.3
2018-12-22T00:27:20.616Z,95163.3
2018-12-22T00:28:23.547Z,95162.1
2018-12-22T00:29:25.682Z,95152.3
2018-12-22T00:30:28.301Z,95158.8
2018-12-22T00:31:30.441Z,95166.3
2018-12-22T00:32:32.857Z,95172
2018-12-22T00:33:35.294Z,95172.5
2018-12-22T00:34:37.162Z,95175
2018-12-22T00:35:39.597Z,95171.2
2018-12-22T00:36:41.498Z,95173.8
2018-12-22T00:37:43.390Z,95167.8
2018-12-22T00:38:45.824Z,95172.3
2018-12-22T00:39:48.253Z,95176.3
2018-12-22T00:40:50.735Z,95179.5
2018-12-22T00:41:53.144Z,95183.4
2018-12-22T00:42:55.054Z,95171.7
2018-12-22T00:43:56.954Z,95180.8
2018-12-22T00:44:59.370Z,95182.6
2018-12-22T00:46:01.538Z,95184.1
2018-12-22T00:47:03.963Z,95181
2018-12-22T00:48:06.122Z,95171.7
2018-12-22T00:49:08.107Z,95181.9
2018-12-22T00:50:10.003Z,95177.6
2018-12-22T00:51:11.637Z,95179.2
2018-12-22T00:52:14.141Z,95174.9
2018-12-22T00:53:16.314Z,95184.4
2018-12-22T00:54:19.048Z,95176.9
2018-12-22T00:55:21.473Z,95186.2
2018-12-22T00:56:24.076Z,95183.3
2018-12-22T00:57:26.240Z,95185.4
2018-12-22T00:59:33.649Z,95200.8
2018-12-22T01:00:36.080Z,95194.1
2018-12-22T01:01:38.216Z,95200.4
2018-12-22T01:02:40.651Z,95192.7
2018-12-22T01:03:43.073Z,95197.8
2018-12-22T01:04:45.504Z,95192.3
2018-12-22T01:05:47.378Z,95187.5
2018-12-22T01:06:49.528Z,95196.1
2018-12-22T01:07:51.688Z,95192.2
2018-12-22T01:08:54.107Z,95190.5
2018-12-22T01:09:56.534Z,95197.8
2018-12-22T01:10:58.965Z,95208.5
2018-12-22T01:12:00.883Z,95206.8
2018-12-22T01:13:03.052Z,95210.3
2018-12-22T01:14:04.916Z,95217.1
2018-12-22T01:15:07.081Z,95210.7
2018-12-22T01:16:09.514Z,95217.3
2018-12-22T01:17:11.941Z,95217.5
2018-12-22T01:18:14.106Z,95220.2
2018-12-22T01:19:16.264Z,95223
2018-12-22T01:20:18.424Z,95222.8
2018-12-22T01:21:20.853Z,95221
2018-12-22T01:22:23.015Z,95221.5
2018-12-22T01:23:25.164Z,95213.6
2018-12-22T01:24:27.329Z,95220.1
2018-12-22T01:25:29.809Z,95220.5
2018-12-22T01:26:32.233Z,95220
2018-12-22T01:27:34.656Z,95219.9
2018-12-22T01:29:42.093Z,95219.5
2018-12-22T01:30:44.526Z,95223.4
2018-12-22T01:31:46.945Z,95218.3
2018-12-22T01:32:49.109Z,95220.5
2018-12-22T01:33:51.539Z,95218.5
2018-12-22T01:34:53.683Z,95218.7
2018-12-22T01:35:55.310Z,95219.9
2018-12-22T01:36:57.748Z,95218.5
2018-12-22T01:38:00.185Z,95217.2
2018-12-22T01:39:02.623Z,95218.3
2018-12-22T01:40:05.072Z,95214.1
2018-12-22T01:41:06.952Z,95218.9
2018-12-22T01:42:09.391Z,95210.6
2018-12-22T01:43:11.560Z,95208.7
2018-12-22T01:44:13.984Z,95216.2
2018-12-22T01:45:16.423Z,95209.1
2018-12-22T01:46:18.620Z,95218.1
2018-12-22T01:47:20.785Z,95215.2
2018-12-22T01:48:23.225Z,95210.6
2018-12-22T01:50:30.657Z,95219.9
2018-12-22T01:51:32.816Z,95218.5
2018-12-22T01:52:34.975Z,95221.2
2018-12-22T01:53:37.495Z,95217.3
2018-12-22T01:54:39.936Z,95211.5
2018-12-22T01:55:42.356Z,95208.5
2018-12-22T01:56:44.781Z,95210.7
2018-12-22T01:57:47.235Z,95211.2
2018-12-22T01:58:49.675Z,95206.7
2018-12-22T01:59:51.825Z,95211
2018-12-22T02:00:54.253Z,95205.6
2018-12-22T02:01:56.686Z,95202.8
2018-12-22T02:02:58.835Z,95200.4
2018-12-22T02:04:00.982Z,95204.5
2018-12-22T02:05:02.879Z,95206.1
2018-12-22T02:06:05.056Z,95208.2
2018-12-22T02:07:07.495Z,95206.8
2018-12-22T02:08:09.668Z,95211
2018-12-22T02:09:11.821Z,95205.3
2018-12-22T02:10:14.243Z,95208.4
2018-12-22T02:11:15.845Z,95202.1
2018-12-22T02:12:18.002Z,95209.7
2018-12-22T02:13:20.446Z,95208.1
2018-12-22T02:14:22.604Z,95203.8
2018-12-22T02:15:25.039Z,95196.3
2018-12-22T02:16:27.461Z,95201.3
2018-12-22T02:17:29.905Z,95202.2
2018-12-22T02:18:32.058Z,95188.4
2018-12-22T02:19:34.213Z,95185.2
2018-12-22T02:20:36.634Z,95186.5
2018-12-22T02:21:39.093Z,95186.5
2018-12-22T02:22:40.987Z,95194.6
2018-12-22T02:23:43.426Z,95190.3
2018-12-22T02:24:45.574Z,95185.7
2018-12-22T02:25:47.995Z,95182.1
2018-12-22T02:26:50.427Z,95183.8
2018-12-22T02:27:52.853Z,95185.5
2018-12-22T02:30:00.286Z,95179.2
2018-12-22T02:31:02.738Z,95172.7
2018-12-22T02:32:05.148Z,95173.8
2018-12-22T02:33:07.311Z,95170.4
2018-12-22T02:34:09.456Z,95175.8
2018-12-22T02:35:11.896Z,95179.8
2018-12-22T02:36:14.042Z,95178.3
2018-12-22T02:37:16.473Z,95169.3
2018-12-22T02:38:18.901Z,95180.6
2018-12-22T02:39:21.313Z,95170
2018-12-22T02:40:23.184Z,95172.7
2018-12-22T02:41:25.625Z,95177.1
2018-12-22T02:42:27.538Z,95165.4
2018-12-22T02:43:29.429Z,95173.2
2018-12-22T02:44:31.864Z,95172.5
2018-12-22T02:45:34.018Z,95162.6
2018-12-22T02:46:36.172Z,95169.4
2018-12-22T02:47:38.623Z,95166.7
2018-12-22T02:48:41.066Z,95171.2
2018-12-22T02:49:42.950Z,95167.5
2018-12-22T02:50:45.124Z,95175.1
2018-12-22T02:51:47.548Z,95178.1
2018-12-22T02:52:49.416Z,95170.4
2018-12-22T02:53:51.846Z,95164.4
2018-12-22T02:54:54.271Z,95166.7
2018-12-22T02:55:56.427Z,95175.3
2018-12-22T02:56:58.856Z,95159.8
2018-12-22T02:58:01.277Z,95166.6
2018-12-22T03:00:08.496Z,95162.3
2018-12-22T03:01:10.647Z,95165.2
2018-12-22T03:02:12.887Z,95170.4
2018-12-22T03:03:15.466Z,95165.9
2018-12-22T03:04:17.626Z,95162.6
2018-12-22T03:05:19.504Z,95176.8
2018-12-22T03:06:21.930Z,95165.7
2018-12-22T03:07:24.357Z,95165.5
2018-12-22T03:08:26.509Z,95167.5
2018-12-22T03:09:28.854Z,95156.7
2018-12-22T03:10:30.733Z,95161.3
2018-12-22T03:11:33.168Z,95155.3
2018-12-22T03:12:35.578Z,95161.8
2018-12-22T03:13:37.847Z,95153.2
2018-12-22T03:14:40.298Z,95153.5
2018-12-22T03:15:42.429Z,95156.6
2018-12-22T03:16:44.855Z,95150.4
2018-12-22T03:17:47.294Z,95157.1
2018-12-22T03:18:49.425Z,95149.6
2018-12-22T03:19:51.850Z,95152.3
2018-12-22T03:20:54.276Z,95155
2018-12-22T03:21:56.809Z,95145.3
2018-12-22T03:22:59.250Z,95155.3
2018-12-22T03:24:01.400Z,95155.8
2018-12-22T03:25:03.825Z,95155.6
2018-12-22T03:26:06.266Z,95155.2
2018-12-22T03:27:08.696Z,95153.6
2018-12-22T03:28:11.122Z,95158.3
2018-12-22T03:30:18.543Z,95145.6
2018-12-22T03:31:20.960Z,95149.5
2018-12-22T03:32:23.388Z,95156.1
2018-12-22T03:33:25.556Z,95156.1
2018-12-22T03:34:27.976Z,95145.3
2018-12-22T03:35:30.108Z,95154.7
2018-12-22T03:36:32.532Z,95142.6
2018-12-22T03:37:34.952Z,95153.9
2018-12-22T03:38:37.098Z,95139.6
2018-12-22T03:39:39.527Z,95147.8
2018-12-22T03:40:41.667Z,95141.6
2018-12-22T03:41:44.094Z,95135.4
2018-12-22T03:42:46.266Z,95137.2
2018-12-22T03:43:48.694Z,95137.3
2018-12-22T03:44:50.849Z,95142.6
2018-12-22T03:45:52.998Z,95144.6
2018-12-22T03:46:55.432Z,95142.5
2018-12-22T03:47:57.588Z,95143.7
2018-12-22T03:49:00.013Z,95140.5
2018-12-22T03:50:01.904Z,95138.6
2018-12-22T03:51:04.337Z,95146.6
2018-12-22T03:52:06.755Z,95144.3
2018-12-22T03:53:09.296Z,95140.5
2018-12-22T03:54:11.725Z,95143.4
2018-12-22T03:55:13.877Z,95140.4
2018-12-22T03:56:16.027Z,95145
2018-12-22T03:57:18.447Z,95145.4
2018-12-22T03:58:20.628Z,95147.4
2018-12-22T04:00:28.051Z,95132.6
2018-12-22T04:01:30.486Z,95129.1
2018-12-22T04:02:32.658Z,95130.8
2018-12-22T04:03:34.823Z,95130.5
2018-12-22T04:04:37.270Z,95133.6
2018-12-22T04:05:39.694Z,95134.3
2018-12-22T04:06:42.119Z,95126.9
2018-12-22T04:07:44.276Z,95130
2018-12-22T04:08:46.714Z,95130
2018-12-22T04:09:49.132Z,95133.3
2018-12-22T04:10:51.573Z,95116.5
2018-12-22T04:11:53.712Z,95111.5
2018-12-22T04:12:55.890Z,95121.6
2018-12-22T04:13:58.032Z,95130.8
2018-12-22T04:14:59.886Z,95120.5
2018-12-22T04:16:02.323Z,95123.8
2018-12-22T04:17:04.458Z,95116.2
2018-12-22T04:18:06.885Z,95120.5
2018-12-22T04:19:09.322Z,95119.8
2018-12-22T04:20:11.487Z,95117.3
2018-12-22T04:21:13.376Z,95113.8
2018-12-22T04:22:15.797Z,95107
2018-12-22T04:23:18.228Z,95135.3
2018-12-22T04:24:20.650Z,95123.6
2018-12-22T04:25:23.084Z,95115.9
2018-12-22T04:26:25.525Z,95103.8
2018-12-22T04:27:27.966Z,95119.9
2018-12-22T04:28:30.389Z,95111.4
2018-12-22T04:30:37.233Z,95123
2018-12-22T04:31:39.390Z,95121
2018-12-22T04:32:41.824Z,95130.8
2018-12-22T04:33:43.981Z,95125.3
2018-12-22T04:34:46.407Z,95115.2
2018-12-22T04:35:48.556Z,95126.1
2018-12-22T04:36:50.981Z,95130.6
2018-12-22T04:37:52.632Z,95131.5
2018-12-22T04:38:55.064Z,95110.3
2018-12-22T04:39:57.528Z,95125.5
2018-12-22T04:40:59.774Z,95128.5
2018-12-22T04:42:02.206Z,95141
2018-12-22T04:43:04.631Z,95134.5
2018-12-22T04:44:07.049Z,95134.2
2018-12-22T04:45:09.465Z,95144
2018-12-22T04:46:11.909Z,95133.3
2018-12-22T04:47:14.335Z,95128.8
2018-12-22T04:48:15.939Z,95136.6
2018-12-22T04:49:18.365Z,95142.6
2018-12-22T04:50:20.804Z,95140.2
2018-12-22T04:51:23.245Z,95136
2018-12-22T04:52:25.668Z,95119
2018-12-22T04:53:27.820Z,95130.8
2018-12-22T04:54:29.965Z,95117.8
2018-12-22T04:55:32.123Z,95125.5
2018-12-22T04:56:34.277Z,95131.7
2018-12-22T04:57:36.725Z,95136.1
2018-12-22T04:58:39.166Z,95111.6
2018-12-22T05:00:46.575Z,95114.5
2018-12-22T05:01:48.992Z,95125.6
2018-12-22T05:02:51.419Z,95128.7
2018-12-22T05:03:53.845Z,95147.9
2018-12-22T05:04:55.997Z,95137.8
2018-12-22T05:05:58.457Z,95142
2018-12-22T05:07:00.625Z,95147.6
2018-12-22T05:08:03.061Z,95142.5
2018-12-22T05:09:05.212Z,95148.5
2018-12-22T05:10:07.642Z,95146.2
2018-12-22T05:11:09.841Z,95141
2018-12-22T05:12:11.991Z,95152.3
2018-12-22T05:13:14.415Z,95156.5
2018-12-22T05:14:16.946Z,95156.9
2018-12-22T05:15:34.036Z,95152.3
2018-12-22T05:16:36.484Z,95168.5
2018-12-22T05:17:38.642Z,95149.7
2018-12-22T05:18:40.484Z,95154.2
2018-12-22T05:19:42.653Z,95159.5
2018-12-22T05:20:44.233Z,95153.3
2018-12-22T05:21:46.673Z,95161.4
2018-12-22T05:22:49.126Z,95166.9
2018-12-22T05:23:51.285Z,95191.8
2018-12-22T05:24:53.435Z,95165.2
2018-12-22T05:25:55.591Z,95158.8
2018-12-22T05:26:58.022Z,95162.2
2018-12-22T05:28:00.452Z,95166.3
2018-12-22T05:29:02.871Z,95167.7
2018-12-22T05:30:05.019Z,95172.1
2018-12-22T05:31:07.172Z,95161.9
2018-12-22T05:32:09.346Z,95173.3
2018-12-22T05:33:11.772Z,95172.4
2018-12-22T05:34:13.931Z,95167.1
2018-12-22T05:35:16.473Z,95171.3
2018-12-22T05:36:18.897Z,95165.5
2018-12-22T05:37:21.080Z,95150.5
2018-12-22T05:38:22.970Z,95166.2
2018-12-22T05:39:25.138Z,95162.5
2018-12-22T05:40:27.556Z,95168.1
2018-12-22T05:41:29.985Z,95171.6
2018-12-22T05:42:32.138Z,95175.7
2018-12-22T05:43:34.303Z,95183.1
2018-12-22T05:44:36.497Z,95181.9
2018-12-22T05:45:38.924Z,95174.9
2018-12-22T05:46:41.113Z,95187.5
2018-12-22T05:47:43.275Z,95185.4
2018-12-22T05:48:45.416Z,95194.3
2018-12-22T05:49:47.865Z,95198.2
2018-12-22T05:50:50.022Z,95191.7
2018-12-22T05:51:52.190Z,95210.4
2018-12-22T05:52:54.364Z,95194.4
2018-12-22T05:53:56.543Z,95204.3
2018-12-22T05:54:58.715Z,95202.8
2018-12-22T05:56:00.871Z,95192.1
2018-12-22T05:57:03.304Z,95199.1
2018-12-22T05:58:05.761Z,95188.3
2018-12-22T05:59:07.913Z,95193
2018-12-22T06:00:10.075Z,95186.9
2018-12-22T06:01:12.529Z,95191.3
2018-12-22T06:02:14.417Z,95196
2018-12-22T06:03:16.570Z,95187.5
2018-12-22T06:04:18.723Z,95191.5
2018-12-22T06:05:21.152Z,95191.3
2018-12-22T06:06:23.680Z,95182.9
2018-12-22T06:07:25.570Z,95190.4
2018-12-22T06:08:27.703Z,95195
2018-12-22T06:09:29.597Z,95185.7
2018-12-22T06:10:32.024Z,95184.4
2018-12-22T06:11:33.869Z,95190.8
2018-12-22T06:12:36.045Z,95183.3
2018-12-22T06:13:38.494Z,95185
2018-12-22T06:14:40.374Z,95191.1
2018-12-22T06:15:42.302Z,95190.7
2018-12-22T06:16:44.722Z,95198.5
2018-12-22T06:17:46.845Z,95194.2
2018-12-22T06:18:49.287Z,95199.6
2018-12-22T06:19:51.445Z,95204.1
2018-12-22T06:20:53.953Z,95202.8
2018-12-22T06:21:56.103Z,95203.8
2018-12-22T06:22:58.523Z,95197.2
2018-12-22T06:24:00.725Z,95208.4
2018-12-22T06:25:02.873Z,95206.8
2018-12-22T06:26:04.735Z,95208.2
2018-12-22T06:27:07.170Z,95203.8
2018-12-22T06:28:09.595Z,95199.4
2018-12-22T06:29:12.025Z,95215
2018-12-22T06:30:14.203Z,95199.3
2018-12-22T06:31:16.345Z,95208.7
2018-12-22T06:32:18.791Z,95202.8
2018-12-22T06:33:21.227Z,95205.4
2018-12-22T06:34:23.388Z,95191.4
2018-12-22T06:35:25.581Z,95202.6
2018-12-22T06:36:28.035Z,95202.7
2018-12-22T06:37:30.479Z,95204.2
2018-12-22T06:38:32.925Z,95223
2018-12-22T06:39:35.366Z,95210
2018-12-22T06:40:37.485Z,95213.7
2018-12-22T06:41:39.375Z,95206.6
2018-12-22T06:42:41.301Z,95212.8
2018-12-22T06:43:43.464Z,95205.3
2018-12-22T06:44:45.665Z,95196.1
2018-12-22T06:45:47.785Z,95200.9
2018-12-22T06:46:50.225Z,95216.6
2018-12-22T06:47:54.681Z,95201.7
2018-12-22T06:48:56.545Z,95218.8
2018-12-22T06:49:58.145Z,95214.6
2018-12-22T06:51:00.297Z,95203.2
2018-12-22T06:52:02.469Z,95218.2
2018-12-22T06:53:04.613Z,95218.7
2018-12-22T06:54:07.041Z,95214.6
2018-12-22T06:55:09.188Z,95223.2
2018-12-22T06:56:11.631Z,95209.1
2018-12-22T06:57:14.051Z,95226.1
2018-12-22T06:58:16.475Z,95218
2018-12-22T06:59:18.638Z,95217.1
2018-12-22T07:00:21.062Z,95218
2018-12-22T07:01:22.943Z,95216.7
2018-12-22T07:02:25.507Z,95194.6
2018-12-22T07:03:27.645Z,95203.1
2018-12-22T07:04:30.084Z,95201.6
2018-12-22T07:05:32.231Z,95210.2
2018-12-22T07:06:34.653Z,95212.7
2018-12-22T07:07:36.833Z,95212
2018-12-22T07:08:38.995Z,95219.6
2018-12-22T07:09:41.165Z,95200.8
2018-12-22T07:10:43.050Z,95205.4
2018-12-22T07:11:45.475Z,95218.3
2018-12-22T07:12:47.633Z,95202.5
2018-12-22T07:13:50.083Z,95206.8
2018-12-22T07:14:51.966Z,95206
2018-12-22T07:15:54.408Z,95203.7
2018-12-22T07:16:56.297Z,95213.9
2018-12-22T07:17:58.185Z,95208.7
2018-12-22T07:19:00.323Z,95204.4
2018-12-22T07:20:02.506Z,95213.6
2018-12-22T07:21:04.948Z,95207.3
2018-12-22T07:22:06.565Z,95206.3
2018-12-22T07:23:08.747Z,95223
2018-12-22T07:24:11.171Z,95205.5
2018-12-22T07:25:13.606Z,95214.8
2018-12-22T07:26:16.045Z,95230.8
2018-12-22T07:27:18.213Z,95227.9
2018-12-22T07:28:20.381Z,95218.4
2018-12-22T07:29:22.922Z,95219.7
2018-12-22T07:31:30.334Z,95226.3
2018-12-22T07:32:32.760Z,95217.9
2018-12-22T07:33:34.904Z,95212.2
2018-12-22T07:34:37.127Z,95225.9
2018-12-22T07:35:39.295Z,95215.6
2018-12-22T07:36:41.464Z,95225.8
2018-12-22T07:37:43.618Z,95211.2
2018-12-22T07:38:45.465Z,95215.5
2018-12-22T07:39:47.890Z,95214.6
2018-12-22T07:40:50.007Z,95206.6
2018-12-22T07:41:52.169Z,95212.8
2018-12-22T07:42:54.342Z,95221.5
2018-12-22T07:43:56.489Z,95218.3
2018-12-22T07:44:58.384Z,95211.8
2018-12-22T07:46:00.535Z,95218.3
2018-12-22T07:47:02.993Z,95236.3
2018-12-22T07:48:05.435Z,95230.9
2018-12-22T07:49:07.604Z,95220.9
2018-12-22T07:50:10.047Z,95235.5
2018-12-22T07:51:12.472Z,95233.1
2018-12-22T07:52:14.589Z,95234.3
2018-12-22T07:53:17.030Z,95244.1
2018-12-22T07:54:19.461Z,95242.9
2018-12-22T07:55:21.623Z,95246.6
2018-12-22T07:56:24.050Z,95254.7
2018-12-22T07:57:26.477Z,95245.7
2018-12-22T07:58:28.897Z,95250
2018-12-22T07:59:30.773Z,95255.3
2018-12-22T08:01:37.889Z,95264.9
2018-12-22T08:02:40.024Z,95277.4
2018-12-22T08:03:41.605Z,95267.7
2018-12-22T08:04:43.778Z,95276.4
2018-12-22T08:05:45.937Z,95283.4
2018-12-22T08:06:47.913Z,95273
2018-12-22T08:07:50.063Z,95281.3
2018-12-22T08:08:52.509Z,95289.2
2018-12-22T08:09:54.964Z,95298
2018-12-22T08:10:57.117Z,95305.8
2018-12-22T08:11:59.263Z,95299.4
2018-12-22T08:13:01.410Z,95298.2
2018-12-22T08:14:03.853Z,95304.2
2018-12-22T08:15:06.291Z,95312.5
2018-12-22T08:16:08.445Z,95305.8
2018-12-22T08:17:10.879Z,95311.6
2018-12-22T08:18:13.332Z,95320.4
2018-12-22T08:19:15.761Z,95321
2018-12-22T08:20:17.936Z,95309
2018-12-22T08:21:20.373Z,95328
2018-12-22T08:22:22.907Z,95324.5
2018-12-22T08:23:25.344Z,95329.9
2018-12-22T08:24:27.783Z,95319.5
2018-12-22T08:25:30.209Z,95335.6
2018-12-22T08:26:32.654Z,95331.4
2018-12-22T08:27:35.099Z,95335
2018-12-22T08:28:37.272Z,95336
2018-12-22T08:29:39.438Z,95338.2
2018-12-22T08:31:46.838Z,95338.3
2018-12-22T08:32:48.971Z,95335.9
2018-12-22T08:33:51.395Z,95329
2018-12-22T08:34:53.834Z,95326.7
2018-12-22T08:35:55.717Z,95330.1
2018-12-22T08:36:57.864Z,95326.3
2018-12-22T08:38:00.396Z,95325.1
2018-12-22T08:39:02.264Z,95305.2
2018-12-22T08:40:04.415Z,95331.9
2018-12-22T08:41:06.554Z,95316.1
2018-12-22T08:42:08.711Z,95335.4
2018-12-22T08:43:11.135Z,95336.4
2018-12-22T08:44:13.578Z,95318.9
2018-12-22T08:45:15.724Z,95335
2018-12-22T08:46:18.163Z,95331.2
2018-12-22T08:47:20.061Z,95340.9
2018-12-22T08:48:22.215Z,95337.4
2018-12-22T08:49:24.369Z,95339.4
2018-12-22T08:50:26.521Z,95339.3
2018-12-22T08:51:28.667Z,95359.8
2018-12-22T08:52:31.113Z,95343.3
2018-12-22T08:53:33.634Z,95344.3
2018-12-22T08:54:36.081Z,95346.6
2018-12-22T08:55:38.536Z,95346.5
2018-12-22T08:56:40.703Z,95342
2018-12-22T08:57:43.158Z,95365.2
2018-12-22T08:58:45.594Z,95342
2018-12-22T08:59:48.020Z,95346.9
2018-12-22T09:01:55.132Z,95347.6
2018-12-22T09:02:57.601Z,95366
2018-12-22T09:03:59.474Z,95370.4
2018-12-22T09:05:01.674Z,95377.7
2018-12-22T09:06:04.112Z,95371.8
2018-12-22T09:07:05.976Z,95381.8
2018-12-22T09:08:08.391Z,95388.6
2018-12-22T09:09:10.813Z,95387.9
2018-12-22T09:10:13.269Z,95401.4
2018-12-22T09:11:15.709Z,95397.4
2018-12-22T09:12:18.146Z,95388.8
2018-12-22T09:13:22.452Z,95392.2
2018-12-22T09:14:24.883Z,95389.5
2018-12-22T09:15:27.059Z,95399.6
2018-12-22T09:16:29.483Z,95399.7
2018-12-22T09:17:31.668Z,95396.7
2018-12-22T09:18:33.903Z,95402.8
2018-12-22T09:19:36.327Z,95395.2
2018-12-22T09:20:38.504Z,95404.2
2018-12-22T09:21:40.684Z,95404.9
2018-12-22T09:22:43.117Z,95403.9
2018-12-22T09:23:45.691Z,95401.8
2018-12-22T09:24:48.126Z,95410.2
2018-12-22T09:25:50.579Z,95396.2
2018-12-22T09:26:52.459Z,95411.6
2018-12-22T09:27:54.908Z,95415.1
2018-12-22T09:28:57.053Z,95423.7
2018-12-22T09:29:58.936Z,95423
2018-12-22T09:31:02.413Z,95421.4
2018-12-22T09:32:04.846Z,95427.9
2018-12-22T09:33:07.278Z,95413.2
2018-12-22T09:35:14.431Z,95427.2
2018-12-22T09:36:16.973Z,95422.7
2018-12-22T09:37:19.122Z,95417
2018-12-22T09:38:21.290Z,95425.3
2018-12-22T09:39:23.730Z,95424.9
2018-12-22T09:40:25.963Z,95422.8
2018-12-22T09:41:28.131Z,95426.7
2018-12-22T09:42:30.559Z,95425.6
2018-12-22T09:43:32.723Z,95422.7
2018-12-22T09:44:35.153Z,95436
2018-12-22T09:45:37.292Z,95426.4
2018-12-22T09:46:39.721Z,95424.4
2018-12-22T09:47:41.631Z,95432
2018-12-22T09:48:43.503Z,95442.1
2018-12-22T09:49:45.379Z,95439
2018-12-22T09:50:47.825Z,95438.5
2018-12-22T09:51:50.347Z,95443.1
2018-12-22T09:52:52.516Z,95452.7
2018-12-22T09:53:54.703Z,95446.6
2018-12-22T09:54:57.168Z,95455
2018-12-22T09:55:59.613Z,95459.1
2018-12-22T09:57:02.035Z,95451.1
2018-12-22T09:58:04.553Z,95461.6
2018-12-22T09:59:08.038Z,95447.6
2018-12-22T10:00:10.203Z,95476.2
2018-12-22T10:01:12.654Z,95460.5
2018-12-22T10:02:15.085Z,95440.5
2018-12-22T10:03:17.264Z,95450.5
2018-12-22T10:04:19.713Z,95448
2018-12-22T10:05:22.133Z,95450.6
2018-12-22T10:06:24.304Z,95451.8
2018-12-22T10:07:26.743Z,95451.2
2018-12-22T10:08:28.633Z,95450.3
2018-12-22T10:09:30.795Z,95462.2
2018-12-22T10:10:33.225Z,95450.3
2018-12-22T10:11:35.672Z,95450.7
2018-12-22T10:12:37.827Z,95449.8
2018-12-22T10:13:40.272Z,95453.1
2018-12-22T10:14:42.459Z,95454.2
2018-12-22T10:15:44.891Z,95456.2
2018-12-22T10:16:47.073Z,95453.4
2018-12-22T10:17:49.228Z,95457.9
2018-12-22T10:18:50.841Z,95460
2018-12-22T10:19:52.998Z,95452.4
2018-12-22T10:20:55.181Z,95462.3
2018-12-22T10:21:57.609Z,95441.5
2018-12-22T10:23:00.055Z,95450.9
2018-12-22T10:24:02.473Z,95463.6
2018-12-22T10:25:04.347Z,95446.4
2018-12-22T10:26:06.817Z,95473
2018-12-22T10:27:09.238Z,95463.8
2018-12-22T10:28:11.123Z,95448.2
2018-12-22T10:29:13.591Z,95475.6
2018-12-22T10:30:16.041Z,95451.3
2018-12-22T10:31:19.477Z,95457.8
2018-12-22T10:32:21.905Z,95469.9
2018-12-22T10:33:23.772Z,95463.9
2018-12-22T10:34:25.946Z,95461.9
2018-12-22T10:35:28.369Z,95461.8
2018-12-22T10:36:30.521Z,95463.8
2018-12-22T10:37:32.962Z,95467.1
2018-12-22T10:38:35.393Z,95461
2018-12-22T10:39:37.583Z,95453.1
2018-12-22T10:40:40.019Z,95468.2
2018-12-22T10:41:42.275Z,95462.9
2018-12-22T10:42:44.461Z,95460.8
2018-12-22T10:43:46.620Z,95466.4
2018-12-22T10:44:49.063Z,95456.6
2018-12-22T10:45:51.509Z,95457.2
2018-12-22T10:46:53.963Z,95449.7
2018-12-22T10:47:56.428Z,95445.7
2018-12-22T10:48:58.564Z,95457.8
2018-12-22T10:50:01.215Z,95452.5
2018-12-22T10:51:03.442Z,95453.4
2018-12-22T10:52:05.609Z,95459.1
2018-12-22T10:53:08.060Z,95454.5
2018-12-22T10:54:10.236Z,95443.2
2018-12-22T10:55:12.706Z,95450.6
2018-12-22T10:56:14.904Z,95459.6
2018-12-22T10:57:17.072Z,95460
2018-12-22T10:58:19.524Z,95460.7
2018-12-22T10:59:21.961Z,95470.3
2018-12-22T11:00:24.395Z,95464.4
2018-12-22T11:01:28.299Z,95469.8
2018-12-22T11:02:30.740Z,95466.4
2018-12-22T11:03:33.635Z,95474
2018-12-22T11:04:36.075Z,95462.3
2018-12-22T11:05:38.508Z,95465.7
2018-12-22T11:06:40.642Z,95466.8
2018-12-22T11:07:42.827Z,95463.5
2018-12-22T11:08:44.984Z,95463.6
2018-12-22T11:09:47.448Z,95462.6
2018-12-22T11:10:49.880Z,95459
2018-12-22T11:11:51.758Z,95465.9
2018-12-22T11:12:53.660Z,95459.6
2018-12-22T11:13:55.816Z,95457.1
2018-12-22T11:14:58.274Z,95466.5
2018-12-22T11:16:00.420Z,95463.3
2018-12-22T11:17:02.856Z,95469.7
2018-12-22T11:18:05.297Z,95454.5
2018-12-22T11:19:07.165Z,95461.5
2018-12-22T11:20:09.606Z,95466.7
2018-12-22T11:21:12.033Z,95454.3
2018-12-22T11:22:14.180Z,95459.7
2018-12-22T11:24:21.326Z,95457.4
2018-12-22T11:25:23.765Z,95462.6
2018-12-22T11:26:25.932Z,95457.4
2018-12-22T11:27:28.354Z,95464.6
2018-12-22T11:28:30.783Z,95458.7
2018-12-22T11:29:33.212Z,95457.7
2018-12-22T11:30:35.382Z,95465.2
2018-12-22T11:31:37.836Z,95463.5
2018-12-22T11:32:40.288Z,95466.8
2018-12-22T11:33:42.445Z,95451.9
2018-12-22T11:34:44.338Z,95455.8
2018-12-22T11:35:46.788Z,95463.7
2018-12-22T11:36:48.956Z,95469.4
2018-12-22T11:37:51.416Z,95465.3
2018-12-22T11:38:53.853Z,95473
2018-12-22T11:39:56.384Z,95463.2
2018-12-22T11:40:58.601Z,95473.4
2018-12-22T11:42:00.757Z,95470.8
2018-12-22T11:43:02.926Z,95480.1
2018-12-22T11:44:05.159Z,95466.3
2018-12-22T11:45:07.346Z,95470.9
2018-12-22T11:46:09.542Z,95493.2
2018-12-22T11:47:11.971Z,95487.3
2018-12-22T11:48:14.416Z,95481.1
2018-12-22T11:49:16.584Z,95489.8
2018-12-22T11:50:19.072Z,95481
2018-12-22T11:51:21.538Z,95488.5
2018-12-22T11:52:23.501Z,95480.7
2018-12-22T11:53:25.982Z,95483.7
2018-12-22T11:54:28.131Z,95486.3
2018-12-22T11:55:30.563Z,95488.1
2018-12-22T11:56:33.102Z,95490.8
2018-12-22T11:57:35.545Z,95488.9
2018-12-22T11:58:39.853Z,95490.8
2018-12-22T11:59:42.280Z,95505.1
2018-12-22T12:00:44.698Z,95508.7
2018-12-22T12:01:46.852Z,95513.3
2018-12-22T12:02:49.287Z,95520.4
2018-12-22T12:03:51.451Z,95517.9
2018-12-22T12:04:53.646Z,95528.4
2018-12-22T12:05:55.645Z,95518.9
2018-12-22T12:06:58.089Z,95512.1
2018-12-22T12:08:00.524Z,95506.2
2018-12-22T12:09:02.425Z,95512.6
2018-12-22T12:10:04.590Z,95519.1
2018-12-22T12:11:07.024Z,95523.3
2018-12-22T12:12:08.960Z,95522
2018-12-22T12:13:11.401Z,95513.1
2018-12-22T12:15:08.130Z,95525.1
2018-12-22T12:16:10.092Z,95538.7
2018-12-22T12:17:11.986Z,95541.9
2018-12-22T12:18:13.869Z,95531.1
2018-12-22T12:19:16.307Z,95543.2
2018-12-22T12:20:18.472Z,95543.8
2018-12-22T12:21:20.913Z,95543.8
2018-12-22T12:22:23.199Z,95550.1
2018-12-22T12:23:25.371Z,95550.9
2018-12-22T12:24:27.545Z,95559.6
2018-12-22T12:25:29.989Z,95558.3
2018-12-22T12:26:31.888Z,95553.4
2018-12-22T12:27:34.323Z,95558.2
2018-12-22T12:28:36.846Z,95550.9
2018-12-22T12:29:38.742Z,95556.1
2018-12-22T12:30:40.900Z,95554.7
2018-12-22T12:31:43.085Z,95554.8
2018-12-22T12:32:49.727Z,95558.8
2018-12-22T12:33:51.608Z,95557.1
2018-12-22T12:34:54.032Z,95556.6
2018-12-22T12:35:56.482Z,95561.9
2018-12-22T12:36:58.926Z,95555.9
2018-12-22T12:38:01.091Z,95558.3
2018-12-22T12:39:03.509Z,95556.4
2018-12-22T12:40:05.660Z,95561.4
2018-12-22T12:41:07.833Z,95565.5
2018-12-22T12:42:10.270Z,95563.2
2018-12-22T12:43:12.453Z,95572.6
2018-12-22T12:44:14.320Z,95567.2
2018-12-22T12:45:31.125Z,95565.5
2018-12-22T12:47:38.540Z,95563.7
2018-12-22T12:48:40.984Z,95558
2018-12-22T12:49:43.424Z,95559.4
2018-12-22T12:50:47.837Z,95555.3
2018-12-22T12:51:50.072Z,95569.1
2018-12-22T12:52:52.201Z,95564.7
2018-12-22T12:53:54.404Z,95560.5
2018-12-22T12:54:56.854Z,95560.8
2018-12-22T12:55:59.036Z,95559.2